Owen Stengs

Chefscout - Cambuur
3 Apr 2027
Samstag
Verarbeitung

Persönlichkeit

Anpassungsfähigkeit (4) Ehrgeiz (5) Kontroverse (8) Loyalität (2) Druck (12) Professionalität (12) Fairness (2) Temperament (9)

Profil

Trainerstil Demokratisch
Lizenz Kontinentale C
Entschlossenheit 8
Menschenführung 5
Motivation 8
Disziplin 11
Arbeitszufriedenheit
100%
Ermüdung
0%
Rolle Chefscout
Gehalt 34.2K p/W
Vertrag 14.03.2029

Leistung

Verhalten Gut
Trainingseffektivität
48%
Spielerentwicklung
50%
Verletzungsprävention
50%
Taktische Umsetzung
50%

Letzte Ereignisse

Nahm an einer Scouting-Besprechung teil jetzt
Nahm an einer Scouting-Besprechung teil 7T her
Nahm an einer Scouting-Besprechung teil 7T her
Empfahl ein Transferziel 7T her
Nahm an einer Scouting-Besprechung teil 14T her
Nahm an einer Scouting-Besprechung teil 14T her
Empfahl ein Transferziel 14T her
Empfahl ein Transferziel 21T her

Aktuell beobachtet

70
Spieler Verein Status Fähigkeit Vertrauen Beobachtet Zuletzt beobachtet Letzte Stimme
Lucas Beerten Roda Aktiv 110 / 101 55% 1 11.01.2027 -
Noë Misumi NEC Aktiv 101 / 93 55% 1 06.01.2027 -
Erick Ngcobo Black Aces Bericht bereit 103 / 105 66% 1 01.01.2027 Befürworten
Diego Valencia Gornik Leczna Aktiv 131 / 110 40% 2 31.12.2026 -
Denis Rubanov Dinamo Stavropol Aktiv 92 / 82 40% 1 31.12.2026 -
João Costa Santa Clara Aktiv 120 / 117 40% 1 29.12.2026 -
Filip Kubala Banik Ostrava Aktiv 138 / 131 40% 2 28.12.2026 -
Alexander Lyng SonderjyskE Aktiv 110 / 115 40% 2 28.12.2026 -
Luka Reischl ADO Den Haag Aktiv 101 / 109 40% 1 27.12.2026 -
Denys Ustymenko Obolon Aktiv 97 / 97 40% 1 26.12.2026 -
Ethan Hoard OFK Beograd Aktiv 96 / 111 40% 1 26.12.2026 -
Bienvenue Kanakimana Zbrojovka Brno Aktiv 109 / 120 40% 3 24.12.2026 -
Dale Taylor Blackpool Aktiv 102 / 109 40% 2 23.12.2026 -
Alessio Nepi Perugia Aktiv 95 / 94 40% 1 23.12.2026 -
Fábio Tavares Newport County Aktiv 105 / 105 40% 2 20.12.2026 -
Miro Dinamo Makhachkala Aktiv 95 / 108 40% 1 20.12.2026 -
Jacques Siwe Rubin Aktiv 101 / 127 40% 2 19.12.2026 -
Etiosa Ighodaro Kaizer Chiefs Aktiv 106 / 104 40% 3 19.12.2026 -
Luis Palma Lech Aktiv 121 / 127 40% 2 18.12.2026 -
Max Fenger IFK Goteborg Aktiv 120 / 136 40% 1 18.12.2026 -
Keano Vanrafelghem KV Mechelen Aktiv 111 / 117 40% 1 17.12.2026 -
Thom van Bergen Groningen Aktiv 123 / 114 40% 2 16.12.2026 -
Ciprian Coman Pandurii Aktiv 126 / 114 40% 2 16.12.2026 Mehr Infos nötig
Camillo Tavernelli Arezzo Aktiv 117 / 113 40% 1 11.12.2026 -
David Ankeye Zeleznicar Pancevo Aktiv 123 / 107 40% 1 08.12.2026 -
Lucas Duarte Felgueiras Aktiv 115 / 103 40% 2 07.12.2026 -
Juan-José Perea Zurich Aktiv 130 / 122 40% 1 07.12.2026 -
Fernand Gouré Westerlo Aktiv 118 / 104 40% 3 26.11.2026 -
Yoshan Valois Lanús Aktiv 112 / 121 40% 3 26.11.2026 -
Isa Sakamoto Westerlo Aktiv 110 / 122 40% 2 23.11.2026 -
Chico Banza Zamalek Aktiv 120 / 114 40% 1 22.11.2026 -
Seedy Jatta Sturm Graz Aktiv 123 / 122 40% 1 22.11.2026 -
Iuri Tavares NK Varazdin Aktiv 118 / 106 40% 1 21.11.2026 -
Victor Olatunji Real Salt Lake Aktiv 109 / 116 40% 1 21.11.2026 -
Florián Monzón Atlas Aktiv 142 / 130 40% 1 20.11.2026 -
Ştefan Baiaram Universitatea Craiova Aktiv 136 / 116 40% 1 19.11.2026 -
Devin Haen Willem II Aktiv 115 / 118 40% 1 19.11.2026 -
Duk Atlas Aktiv 127 / 101 40% 2 17.11.2026 -
Carlos Paraco Metalist Aktiv 118 / 117 40% 1 16.11.2026 -
Dardan Shabanhaxhaj Rubin Aktiv 125 / 110 40% 1 15.11.2026 -
Jonathan Afolabi KV Kortrijk Aktiv 90 / 100 40% 2 14.11.2026 -
Assad Al Hamlawi Universitatea Craiova Aktiv 108 / 126 40% 1 14.11.2026 -
Rok Zajc NK Domzale Aktiv 133 / 130 40% 4 13.11.2026 -
Ramiro Ruiz Rodríguez Atlético Tucumán Aktiv 114 / 130 40% 1 12.11.2026 -
Zayd El Kandoussi Lokeren Aktiv 105 / 110 40% 1 10.11.2026 -
Matthew Hoppe SonderjyskE Aktiv 125 / 99 40% 2 09.11.2026 -
Michele Šego Hajduk Split Aktiv 135 / 127 40% 1 09.11.2026 -
Mykola Haiduchyk Polissia Aktiv 122 / 107 40% 1 05.11.2026 -
Adrian Svanbäck BK Hacken Aktiv 99 / 118 40% 1 05.11.2026 -
Luther Zwane Platinum Stars Aktiv 115 / 122 40% 2 04.11.2026 -
Anosike Ementa Zulte Waregem Aktiv 102 / 114 40% 1 02.11.2026 -
Yegor Golenkov Rostov Aktiv 116 / 124 40% 1 01.11.2026 -
Ihor Krasnopir Polissia Aktiv 99 / 106 40% 1 01.11.2026 -
Brayan León Mamelodi Sundowns Aktiv 134 / 122 40% 1 31.10.2026 -
Agustín Gallo Tristán Suárez Aktiv 113 / 122 40% 1 31.10.2026 -
Alejandro Piedrahita Deportivo Pereira Aktiv 118 / 136 40% 3 28.10.2026 -
Ryotaro Araki Sint-Truiden Aktiv 128 / 119 40% 3 28.10.2026 -
Simon Becher St. Louis CITY SC Aktiv 122 / 92 40% 1 27.10.2026 -
Jalen Hawkins ADO Den Haag Aktiv 112 / 104 40% 2 26.10.2026 -
Franco Fagúndez Estudiantes Aktiv 131 / 126 40% 2 25.10.2026 -
Gabriel Charpentier Cracovia Aktiv 105 / 107 40% 1 25.10.2026 -
Evidence Makgopa Orlando Pirates Aktiv 128 / 120 40% 1 24.10.2026 -
Camilo Durán Bloemfontein Celtic Aktiv 134 / 128 40% 3 21.10.2026 -
Jefry Zapata Once Caldas Aktiv 129 / 130 40% 1 21.10.2026 -
Sead Hakšabanović Malmo FF Aktiv 109 / 114 40% 1 19.10.2026 -
Yannick Carrasco KV Oostende Aktiv 81 / 90 40% 1 12.10.2026 -
Jalal Abdullai Molde Aktiv 126 / 107 40% 1 12.10.2026 -
Sixtus Ogbuehi KV Kortrijk Aktiv 103 / 103 40% 1 07.10.2026 -
Ezequiel Almirón Estudiantes Aktiv 109 / 126 40% 1 07.10.2026 -
Romeo Vermant Club Brugge Aktiv 122 / 130 40% 1 05.10.2026 -